Latest Weather Observations for Yarrawonga

IDN60801

Issued at 6:23 pm EST Saturday 9 May 2026 (issued every 10 minutes, with the page automatically refreshed every 10 minutes)

About weather observations | Map of weather stations | Latest weather observations for NSW | Other Formats
Station Details ID: 081124 Name: YARRAWONGA Lat: -36.03 Lon: 146.03 Height: 128.9 m
Data from the previous 72 hours. | See also: Recent months at Yarrawonga
Date/Time
EST
Temp
°C
App
Temp
°C
Dew
Point
°C
Rel
Hum
%
Delta-T
°C
Wind Press
QNH
hPa
Press
MSL
hPa
Rain since
9am
mm
Dir  Spd
km/h
Gust
km/h
Spd
kts
Gust
kts
09/06:00pm 12.7 12.1 8.8 77 2.0 NE 2 4 1 2 1025.7 1025.8 0.0
09/05:30pm 15.2 14.9 8.7 65 3.3 CALM 0 0 0 0 1025.4 1025.4 0.0
09/05:00pm 16.2 15.7 9.2 63 3.6 NE 2 4 1 2 1025.3 1025.3 0.0
09/04:30pm 17.1 15.6 8.5 57 4.4 NE 6 7 3 4 1025.2 1025.2 0.0
09/04:00pm 17.6 16.1 8.5 55 4.7 NE 6 7 3 4 1025.0 1025.0 0.0
09/03:30pm 18.0 17.4 8.8 55 4.8 N 2 6 1 3 1024.8 1024.8 0.0
09/03:00pm 17.7 16.2 8.3 54 4.8 NNE 6 9 3 5 1024.9 1024.9 0.0
09/02:30pm 17.3 15.7 8.2 55 4.7 N 6 11 3 6 1025.1 1025.1 0.0
09/02:00pm 17.8 16.7 8.6 55 4.7 N 4 9 2 5 1025.1 1025.1 0.0
09/01:30pm 17.3 15.4 9.0 58 4.3 NNE 9 15 5 8 1025.3 1025.3 0.0
09/01:00pm 17.1 15.6 8.3 56 4.5 ENE 6 9 3 5 1025.7 1025.8 0.0
09/12:30pm 17.3 16.6 8.4 56 4.6 NNE 2 4 1 2 1026.1 1026.2 0.0
09/12:00pm 16.3 14.8 8.5 60 4.0 SSE 6 9 3 5 1026.5 1026.6 0.0
09/11:30am 15.9 14.8 8.4 61 3.8 ESE 4 7 2 4 1026.7 1026.8 0.0
09/11:00am 14.6 13.1 8.5 67 3.1 SSW 6 11 3 6 1026.8 1026.9 0.0
09/10:30am 14.2 11.8 8.6 69 2.8 SSW 11 15 6 8 1026.9 1027.0 0.0
09/10:00am 13.5 11.6 9.0 74 2.3 S 9 13 5 7 1027.0 1027.1 0.0
09/09:30am 12.7 11.2 9.2 79 1.8 SSW 7 11 4 6 1027.0 1027.1 0.0
09/09:00am 11.5 10.1 9.4 87 1.1 SW 7 11 4 6 1027.0 1027.1 0.0
09/08:30am 10.3 8.7 10.1 99 0.1 WSW 9 11 5 6 1026.7 1026.8 0.0
09/08:00am 8.7 7.1 8.7 100 0.0 WSW 7 9 4 5 1026.2 1026.3 0.0
09/07:30am 7.6 5.7 7.5 99 0.0 W 7 9 4 5 1026.1 1026.2 0.0
09/07:00am 6.4 3.8 6.3 99 0.0 WSW 9 11 5 6 1025.9 1026.0 0.0
09/06:30am 6.3 4.1 6.2 99 0.0 WSW 7 9 4 5 1025.6 1025.7 0.0
09/06:00am 6.9 5.4 6.8 99 0.0 SW 4 6 2 3 1025.4 1025.4 0.0
09/05:30am 7.5 5.8 7.4 99 0.0 SW 6 7 3 4 1025.0 1025.0 0.0
09/05:00am 8.4 6.3 8.3 99 0.0 SW 9 11 5 6 1024.7 1024.7 0.0
09/04:30am 9.1 6.4 9.0 99 0.0 SW 13 17 7 9 1024.4 1024.4 0.0
09/04:00am 9.3 6.6 8.8 97 0.2 SW 13 17 7 9 1024.3 1024.3 0.0
09/03:30am 9.7 6.7 9.2 97 0.2 SW 15 19 8 10 1024.2 1024.2 0.0
09/03:00am 9.9 6.9 9.3 96 0.3 SW 15 19 8 10 1024.3 1024.3 0.0
09/02:30am 10.4 7.1 9.6 95 0.4 SW 17 20 9 11 1024.3 1024.3 0.0
09/02:00am 10.7 7.8 9.5 92 0.6 WSW 15 20 8 11 1024.5 1024.5 0.0
09/01:30am 11.2 7.5 9.3 88 1.0 SW 19 22 10 12 1024.7 1024.7 0.0
09/01:00am 10.9 7.5 9.0 88 0.9 SW 17 20 9 11 1024.7 1024.7 0.0
09/12:30am 11.4 7.4 9.0 85 1.2 SW 20 26 11 14 1024.8 1024.8 0.0
09/12:00am 11.3 7.4 8.7 84 1.3 SW 19 22 10 12 1024.8 1024.8 0.0
 
Date/Time
EST
Temp
°C
App
Temp
°C
Dew
Point
°C
Rel
Hum
%
Delta-T
°C
Wind Press
QNH
hPa
Press
MSL
hPa
Rain since
9am
mm
Dir  Spd
km/h
Gust
km/h
Spd
kts
Gust
kts
08/11:30pm 11.2 7.9 8.2 82 1.5 SW 15 19 8 10 1024.9 1024.9 0.0
08/11:00pm 11.2 8.4 8.4 83 1.4 SW 13 20 7 11 1025.1 1025.1 0.0
08/10:30pm 11.8 7.7 8.6 81 1.6 SW 20 26 11 14 1024.7 1024.7 0.0
08/10:00pm 10.6 8.1 8.0 84 1.3 SW 11 13 6 7 1025.0 1025.0 0.0
08/09:30pm 12.3 9.8 8.2 76 2.0 SW 11 15 6 8 1024.9 1024.9 0.0
08/09:00pm 12.8 11.4 8.7 76 2.1 SSW 6 11 3 6 1024.9 1024.9 0.0
08/08:30pm 12.3 9.9 8.6 78 1.9 SSW 11 13 6 7 1024.6 1024.6 0.0
08/08:00pm 12.2 11.0 8.1 76 2.0 SSW 4 7 2 4 1024.4 1024.4 0.0
08/07:30pm 11.8 9.5 7.5 75 2.1 SW 9 13 5 7 1024.1 1024.1 0.0
08/07:00pm 12.7 9.3 7.8 72 2.4 SW 15 19 8 10 1023.6 1023.6 0.0
08/06:30pm 13.4 10.8 7.8 69 2.8 SW 11 15 6 8 1023.4 1023.4 0.0
08/06:00pm 14.4 11.1 7.9 65 3.2 SW 15 19 8 10 1023.2 1023.2 0.0
08/05:30pm 15.1 10.7 7.6 61 3.7 SW 20 30 11 16 1022.8 1022.9 0.0
08/05:00pm 16.1 11.0 7.8 58 4.2 SW 24 30 13 16 1022.6 1022.7 0.0
08/04:30pm 16.9 11.0 7.5 54 4.7 SSW 28 43 15 23 1022.4 1022.5 0.0
08/04:00pm 16.8 10.4 8.5 58 4.3 SW 32 43 17 23 1022.2 1022.3 0.0
08/03:30pm 17.9 11.1 7.9 52 5.1 SW 33 43 18 23 1021.9 1022.0 0.0
08/03:00pm 18.4 12.3 8.4 52 5.2 WSW 30 41 16 22 1021.5 1021.6 0.0
08/02:30pm 17.8 12.1 8.4 54 4.9 SW 28 37 15 20 1021.6 1021.7 0.0
08/02:00pm 17.1 11.9 8.8 58 4.3 SW 26 33 14 18 1021.8 1021.9 0.0
08/01:30pm 16.3 12.0 9.3 63 3.6 SW 22 30 12 16 1022.2 1022.3 0.0
08/01:00pm 16.0 10.6 9.4 65 3.4 SW 28 37 15 20 1022.4 1022.5 0.0
08/12:30pm 15.9 10.4 9.3 65 3.4 SW 28 39 15 21 1022.4 1022.5 0.0
08/12:14pm 15.9 10.3 10.0 68 3.1 WSW 30 48 16 26 1022.5 1022.6 0.0
08/12:00pm 16.0 9.8 9.9 67 3.2 WSW 33 44 18 24 1022.5 1022.6 0.0
08/11:30am 15.9 9.7 10.2 69 3.0 WSW 33 43 18 23 1022.7 1022.8 0.0
08/11:00am 15.1 9.6 10.5 74 2.4 WSW 30 41 16 22 1022.8 1022.9 0.0
08/10:30am 14.3 8.1 9.9 75 2.3 WSW 33 50 18 27 1022.9 1023.0 0.0
08/10:27am 14.7 8.6 9.7 72 2.6 WSW 32 50 17 27 1022.9 1023.0 0.0
08/10:00am 14.1 9.4 10.5 79 1.9 W 26 33 14 18 1022.8 1022.9 0.0
08/09:30am 13.3 7.6 9.9 80 1.8 WSW 30 39 16 21 1022.9 1023.0 0.0
08/09:00am 11.9 6.1 9.6 86 1.2 W 30 39 16 21 1022.8 1022.9 0.0
08/08:30am 10.9 6.6 9.2 89 0.9 W 22 30 12 16 1022.7 1022.8 0.0
08/08:00am 10.6 6.2 9.0 90 0.8 W 22 33 12 18 1022.6 1022.7 0.0
08/07:30am 10.1 6.0 8.7 91 0.7 WNW 20 32 11 17 1022.4 1022.5 0.0
08/07:00am 9.6 5.6 8.2 91 0.7 W 19 26 10 14 1022.2 1022.3 0.0
08/06:30am 9.7 5.7 8.1 90 0.8 WNW 19 26 10 14 1022.2 1022.3 0.0
08/06:00am 10.0 6.0 8.1 88 0.9 WNW 19 28 10 15 1022.2 1022.3 0.0
08/05:30am 10.2 6.1 7.8 85 1.2 W 19 26 10 14 1022.0 1022.1 0.0
08/05:00am 10.4 6.2 7.5 82 1.4 W 19 26 10 14 1022.0 1022.1 0.0
08/04:30am 10.4 6.5 7.3 81 1.5 W 17 24 9 13 1021.7 1021.8 0.0
08/04:00am 10.4 6.5 6.9 79 1.7 W 17 24 9 13 1021.6 1021.7 0.0
08/03:30am 10.6 6.7 6.9 78 1.8 W 17 22 9 12 1021.9 1022.0 0.0
08/03:00am 10.5 6.4 6.3 75 2.0 W 17 28 9 15 1021.9 1022.0 0.0
08/02:30am 10.7 6.0 6.1 73 2.2 W 20 30 11 16 1022.0 1022.1 0.0
08/02:00am 10.7 7.0 6.1 73 2.1 WNW 15 24 8 13 1022.0 1022.1 0.0
08/01:30am 10.5 5.8 6.1 74 2.1 W 20 28 11 15 1022.4 1022.5 0.0
08/01:00am 10.2 6.5 6.2 76 1.9 W 15 24 8 13 1022.6 1022.7 0.0
08/12:30am 10.3 5.7 6.3 76 1.9 W 20 26 11 14 1022.7 1022.8 0.0
08/12:00am 10.3 6.6 6.1 75 2.0 WNW 15 19 8 10 1023.1 1023.1 0.0
 
Date/Time
EST
Temp
°C
App
Temp
°C
Dew
Point
°C
Rel
Hum
%
Delta-T
°C
Wind Press
QNH
hPa
Press
MSL
hPa
Rain since
9am
mm
Dir  Spd
km/h
Gust
km/h
Spd
kts
Gust
kts
07/11:30pm 10.0 7.0 6.2 77 1.8 W 11 17 6 9 1023.4 1023.4 0.0
07/11:00pm 9.8 6.1 6.2 78 1.7 W 15 19 8 10 1023.5 1023.5 0.0
07/10:30pm 9.5 6.1 5.9 78 1.7 W 13 19 7 10 1023.6 1023.6 0.0
07/10:00pm 9.9 5.7 5.9 76 1.8 W 17 24 9 13 1024.0 1024.0 0.0
07/09:30pm 9.9 5.7 5.9 76 1.9 W 17 22 9 12 1023.8 1023.8 0.0
07/09:00pm 9.8 6.0 5.8 76 1.8 W 15 20 8 11 1023.9 1023.9 0.0
07/08:30pm 9.2 5.3 5.4 77 1.7 W 15 19 8 10 1023.8 1023.8 0.0
07/08:00pm 9.0 5.8 5.0 76 1.8 W 11 15 6 8 1023.7 1023.7 0.0
07/07:30pm 9.2 6.0 5.0 75 1.9 W 11 13 6 7 1023.7 1023.7 0.0
07/07:00pm 9.7 6.1 5.1 73 2.1 W 13 17 7 9 1023.5 1023.5 0.0
07/06:30pm 10.2 6.1 4.6 68 2.5 W 15 19 8 10 1023.4 1023.4 0.0
07/06:00pm 10.7 6.6 4.4 65 2.8 WSW 15 20 8 11 1023.2 1023.2 0.0
07/05:30pm 10.5 6.0 4.2 65 2.8 SW 17 24 9 13 1022.9 1023.0 0.0
07/05:00pm 11.3 5.3 3.3 58 3.5 SW 24 30 13 16 1022.8 1022.9 0.0
07/04:30pm 11.7 6.6 3.2 56 3.8 SW 19 26 10 14 1022.6 1022.7 0.0
07/04:00pm 11.8 5.4 3.3 56 3.8 SW 26 35 14 19 1022.5 1022.6 0.0
07/03:30pm 11.7 4.9 3.2 56 3.8 WSW 28 37 15 20 1022.4 1022.5 0.0
07/03:00pm 12.5 6.7 4.2 57 3.8 WSW 24 32 13 17 1022.2 1022.3 0.0
07/02:30pm 11.4 5.8 3.7 59 3.4 WSW 22 30 12 16 1022.4 1022.5 0.0
07/02:00pm 11.6 5.6 3.4 57 3.6 SW 24 39 13 21 1022.5 1022.6 0.0
07/01:30pm 11.2 5.2 3.3 58 3.5 SW 24 37 13 20 1022.4 1022.5 0.0
07/01:00pm 11.2 3.0 2.5 55 3.8 SW 35 50 19 27 1022.4 1022.5 0.0
07/12:36pm 11.2 4.3 2.5 55 3.8 SW 28 48 15 26 1022.6 1022.7 0.0
07/12:30pm 11.2 4.1 3.3 58 3.5 SW 30 39 16 21 1022.6 1022.7 0.0
07/12:00pm 11.3 3.6 3.6 59 3.4 SW 33 50 18 27 1022.7 1022.8 0.0
07/11:30am 10.6 2.9 3.2 60 3.2 SW 33 44 18 24 1022.8 1022.9 0.0
07/11:00am 10.0 3.0 4.2 67 2.6 WSW 30 43 16 23 1022.8 1022.9 0.0
07/10:30am 9.6 2.6 4.2 69 2.4 SW 30 37 16 20 1022.5 1022.6 0.0
07/10:00am 8.7 2.1 4.3 74 1.9 WSW 28 39 15 21 1022.1 1022.2 0.0
07/09:30am 7.8 0.4 4.0 77 1.7 WSW 32 43 17 23 1022.0 1022.1 0.0
07/09:00am 7.2 0.1 3.8 79 1.5 WSW 30 41 16 22 1022.0 1022.1 0.8
07/08:30am 6.5 -0.2 3.7 82 1.2 WSW 28 37 15 20 1021.4 1021.5 0.8
07/08:00am 5.8 0.2 3.3 84 1.0 WSW 22 28 12 15 1020.9 1021.0 0.8
07/07:30am 5.3 -0.4 3.0 85 1.0 W 22 28 12 15 1020.5 1020.6 0.8
07/07:00am 5.1 0.0 3.0 86 0.9 WSW 19 26 10 14 1020.2 1020.3 0.8
07/06:30am 5.4 -0.3 3.1 85 1.0 WSW 22 28 12 15 1019.9 1020.0 0.8
07/06:00am 5.4 0.2 3.4 87 0.8 WSW 20 26 11 14 1019.6 1019.7 0.8
07/05:30am 5.8 0.2 3.5 85 1.0 WSW 22 30 12 16 1019.3 1019.4 0.8
07/05:00am 6.0 0.0 3.5 84 1.1 WSW 24 32 13 17 1019.1 1019.2 0.8
07/04:30am 6.2 0.7 3.9 85 1.0 WSW 22 30 12 16 1018.7 1018.7 0.8
07/04:00am 6.5 1.4 4.0 84 1.1 WSW 20 28 11 15 1018.4 1018.4 0.8
07/03:30am 7.0 2.0 4.5 84 1.1 WSW 20 24 11 13 1018.5 1018.5 0.8
07/03:00am 7.8 2.4 4.7 81 1.4 WSW 22 30 12 16 1018.5 1018.5 0.8
07/02:30am 8.7 4.3 7.6 93 0.5 WSW 20 26 11 14 1018.3 1018.3 0.8
07/02:00am 9.2 5.2 8.1 93 0.5 WSW 19 26 10 14 1018.1 1018.1 0.8
07/01:30am 9.2 5.3 8.7 97 0.2 SW 19 28 10 15 1018.0 1018.0 0.8
07/01:00am 9.4 2.9 9.1 98 0.1 SW 33 46 18 25 1017.9 1017.9 0.8
07/12:45am 10.1 3.8 9.8 98 0.2 WSW 33 52 18 28 1018.0 1018.0 0.6
07/12:30am 11.0 5.9 10.5 97 0.3 WSW 28 37 15 20 1017.5 1017.5 0.6
07/12:06am 11.7 8.3 11.2 97 0.3 WNW 20 43 11 23 1017.1 1017.1 0.4
07/12:00am 12.0 9.5 10.9 93 0.6 NW 15 22 8 12 1016.9 1016.9 0.0
 
Date/Time
EST
Temp
°C
App
Temp
°C
Dew
Point
°C
Rel
Hum
%
Delta-T
°C
Wind Press
QNH
hPa
Press
MSL
hPa
Rain since
9am
mm
Dir  Spd
km/h
Gust
km/h
Spd
kts
Gust
kts
06/11:30pm 11.8 9.3 11.0 95 0.4 NNW 15 20 8 11 1016.7 1016.7 0.0
06/11:00pm 11.8 10.2 11.5 98 0.2 NW 11 17 6 9 1017.4 1017.4 0.0
06/10:30pm 12.9 9.4 10.1 83 1.5 WNW 19 33 10 18 1018.1 1018.1 0.0
06/10:00pm 13.7 10.7 9.2 74 2.3 NW 15 20 8 11 1018.3 1018.3 0.0
06/09:30pm 13.5 11.3 9.4 76 2.1 NNW 11 20 6 11 1018.4 1018.4 0.0
06/09:00pm 13.4 11.6 9.3 76 2.1 NW 9 13 5 7 1018.7 1018.7 0.0
06/08:30pm 13.5 11.4 9.6 77 2.0 N 11 17 6 9 1018.6 1018.6 0.0
06/08:00pm 13.3 11.9 9.4 77 2.0 NNW 7 9 4 5 1018.7 1018.7 0.0
06/07:30pm 13.2 11.6 8.7 74 2.3 NNW 7 9 4 5 1019.0 1019.1 0.0
06/07:00pm 13.9 12.3 8.7 71 2.6 NW 7 11 4 6 1019.1 1019.2 0.0
06/06:30pm 13.8 12.2 8.6 71 2.6 NNW 7 11 4 6 1019.0 1019.1 0.0

Other formats

Comma delimited format used in spreadsheet applications
http://www.bom.gov.au/fwo/IDN60801/IDN60801.94862.axf

JavaScript Object Notation format (JSON) in row-major order
http://www.bom.gov.au/fwo/IDN60801/IDN60801.94862.json

Data quality

Most of these data are generated automatically and are frequently updated. Quality checks on data are not normally performed. It is possible for incorrect values to appear. Refer to information at About Latest Weather Observations and please check the disclaimer before using these data.